Aérodrome :
LOGIN :

S'inscrire | Disclaimer

   EN    FR    IT 

 










Légende :    VFR   VFR Marginal   IFR   IFR Intensif   IFR Très Intensif
Visi : 
Plafond : 
>= 8 km
>= 3000ft
5 à 8 km
1000 à 3000 ft
1500m à 5 km
500 à 1000 ft
800 à 1500m
200 à 500 ft
< 800m
< 200 ft
Symboles :   Orages  Brouillard  Fortes neiges  Fortes précipitations  Vent > 20 kt
SIGMETs :   Divers  Orages  Givrage  Turbulence  Onde Orograph.  Cendres Volcan.







- Altitude de l'aérodrome : 13 ft
- Code IATA : SNR
- Voir les cartes d'approche


LFRZ - St-Nazaire

DERNIER METAR :
  • 120330Z AUTO 10008KT 8000 FEW007/// BKN022/// OVC070/// ///CB 05/04 Q1020 TEMPO 3000 -RA BECMG BKN005

METARs EXPIRÉS :
  • 120300Z AUTO 11008KT 7000 BKN007/// OVC025/// ///TCU 05/04 Q1020 TEMPO 3000 -RA BECMG BKN005
  • 120230Z AUTO 13009KT 100V160 7000 BKN006/// BKN029/// OVC076/// ///TCU 05/04 Q1020 TEMPO 3000 -RA BECMG BKN005
  • 120200Z AUTO 12008KT 7000 BKN006/// OVC076/// ///TCU 05/04 Q1020 TEMPO 3000 -RA BECMG BKN005
  • 120130Z AUTO 11010KT 7000 NSC 05/04 Q1020 TEMPO 3000 -RA BECMG BKN005
  • 120100Z AUTO 10012KT 7000 -DZ BKN030/// BKN078/// OVC100/// ///TCU 05/04 Q1019 TEMPO 3000 -RA BECMG BKN005

TAF TAF LFRZ
Valide du 12 à 00h jusqu'au 13 à 00h UTC


112300Z 1200/1224 09010KT 8000 NSC
BECMG 1200/1202 BKN005
TEMPO 1201/1209 3000 -RA
Pas de NOTAMs connus pour ce terrain.
4 SIGMETs publiés pour la FIR Brest (LFRR) :
 
Turbulence forte
LFRR SIGMET 3 VALID 120000/120400 LFPW
LFRR BREST FIR/UIR SEV TURB FCST WI N4830 W00800 - N4900 W00800 - N4915 W00715 - N4730 W00600 - N4715 W00715 - N4830 W00800 FL170/280 MOV E 15KT INTSF=
Annulation du SIGMET 1 
LFRR SIGMET 2 VALID 112220/120400 LFPW
LFRR BREST FIR/UIR CNL SIGMET 1 120000/120400=
SIGMET 1  ANNULÉ :
Turbulence forte
LFRR SIGMET 1 VALID 120400/120800 LFPW
LFRR BREST FIR/UIR SEV TURB FCST WI N4915 W00545 - N4945 W00400 - N4630 W00045 - N4630 W00130 - N4545 W00145 - N4915 W00545 FL160/280 MOV E 15KT NC=
Turbulence forte
LFRR SIGMET 1 VALID 120000/120400 LFPW
LFRR BREST FIR/UIR SEV TURB FCST WI N4830 W00800 - N4900 W00800 - N4915 W00715 - N4800 W00630 - N4730 W00700 - N4830 W00800 FL170/280 MOV E 15KT INTSF=



MET'MAP, la Météo Aéronautique d'un coup d'oeil ! - Copyright ORBIFLY Décembre 2007 - Disclaimer

ORBIFLY MET'MAP TEAM :

Programmation & Développement : Alexandra Zaïnal
Conception & Développement : Baudouin d'Aumeries
Co-Programmation & Développement : Marc-Olivier Méhu
Soutien technique & logistique : Manuel Goepfert

Contact : metmap@orbifly.com




SOURCES & CREDITS :

   NOAA